Time;durP1;ratioP1;P1;durP2;ratioP2;P2;SDS_P1;SDS_P2;PMS_P1;PMS_P2;Temp;Humidity;BMP_temperature;BMP_pressure;BME280_temperature;BME280_humidity;BME280_pressure;Samples;Min_cycle;Max_cycle;Signal;HPM_P1;HPM_P2
2021/12/29 00:01:59;;;;;;;1.70;1.20;;;;;;;8.29;100.00;97451.66;4953227;29;20193;-84
2021/12/29 00:04:27;;;;;;;1.50;1.13;;;;;;;8.32;100.00;97466.44;4954000;29;20240;-84
2021/12/29 00:06:57;;;;;;;1.93;0.80;;;;;;;8.48;100.00;97461.56;4951171;29;20214;-85
2021/12/29 00:09:27;;;;;;;2.37;1.20;;;;;;;8.45;100.00;97459.19;4947147;29;20214;-85
2021/12/29 00:11:55;;;;;;;1.07;0.90;;;;;;;8.41;100.00;97464.88;4951733;29;20197;-85
2021/12/29 00:14:25;;;;;;;1.43;0.87;;;;;;;8.49;100.00;97463.28;4988515;28;20198;-85
2021/12/29 00:16:56;;;;;;;1.30;1.20;;;;;;;8.50;100.00;97466.75;5005038;28;20226;-84
2021/12/29 00:19:29;;;;;;;0.93;0.93;;;;;;;8.57;100.00;97479.28;5011303;28;20193;-84
2021/12/29 00:21:58;;;;;;;1.30;1.10;;;;;;;8.58;100.00;97469.56;5011183;28;20241;-85
2021/12/29 00:24:26;;;;;;;1.20;1.10;;;;;;;8.54;100.00;97478.72;5003576;28;20206;-84
2021/12/29 00:26:54;;;;;;;2.13;1.20;;;;;;;8.67;100.00;97482.00;5005829;28;20205;-85
2021/12/29 00:29:23;;;;;;;2.77;1.20;;;;;;;8.70;100.00;97484.41;5001575;28;20209;-84
2021/12/29 00:31:51;;;;;;;1.30;1.20;;;;;;;8.71;100.00;97498.44;5004678;28;20198;-84
2021/12/29 00:34:20;;;;;;;1.73;1.43;;;;;;;8.73;100.00;97499.97;5013825;28;20198;-84
2021/12/29 00:36:50;;;;;;;1.93;1.17;;;;;;;8.67;100.00;97508.38;5013759;28;20221;-84
2021/12/29 00:39:18;;;;;;;1.50;1.40;;;;;;;8.58;100.00;97511.78;4912860;29;20697;-84
2021/12/29 00:41:47;;;;;;;1.30;1.20;;;;;;;8.62;100.00;97515.84;4915481;29;20273;-84
2021/12/29 00:44:15;;;;;;;2.97;1.60;;;;;;;8.73;100.00;97513.16;4909089;29;20209;-85
2021/12/29 00:46:43;;;;;;;3.83;1.50;;;;;;;8.77;100.00;97506.66;4911922;29;20202;-85
2021/12/29 00:49:12;;;;;;;1.33;1.20;;;;;;;8.74;100.00;97509.56;4910540;29;20248;-85
2021/12/29 00:51:40;;;;;;;1.57;1.47;;;;;;;8.81;100.00;97523.09;4913040;29;20205;-85
2021/12/29 00:54:12;;;;;;;2.10;1.90;;;;;;;8.83;100.00;97529.06;4919123;29;20233;-84
2021/12/29 00:56:40;;;;;;;1.60;1.50;;;;;;;8.84;100.00;97525.47;4927504;28;20248;-85
2021/12/29 00:59:08;;;;;;;1.80;1.50;;;;;;;8.72;100.00;97527.34;5013136;28;20234;-85
2021/12/29 01:01:37;;;;;;;1.50;1.30;;;;;;;8.84;100.00;97533.38;5015312;28;20668;-84
2021/12/29 01:04:06;;;;;;;4.63;1.80;;;;;;;8.89;100.00;97536.50;5015291;28;20213;-85
2021/12/29 01:06:36;;;;;;;2.60;1.70;;;;;;;8.90;100.00;97543.44;5015700;28;20205;-84
2021/12/29 01:09:05;;;;;;;2.43;1.67;;;;;;;8.71;100.00;97540.66;5012598;28;20209;-85
2021/12/29 01:11:36;;;;;;;1.60;1.50;;;;;;;8.86;100.00;97547.28;5009566;28;20224;-85
2021/12/29 01:14:05;;;;;;;1.20;1.10;;;;;;;8.82;100.00;97544.09;5016233;28;20205;-85
2021/12/29 01:16:38;;;;;;;1.50;1.27;;;;;;;8.86;100.00;97557.84;5015232;28;20194;-84
2021/12/29 01:19:12;;;;;;;2.70;1.30;;;;;;;8.86;100.00;97558.69;5026058;28;20237;-82
2021/12/29 01:21:43;;;;;;;1.77;1.30;;;;;;;8.88;100.00;97574.44;5026448;28;20204;-85
2021/12/29 01:24:12;;;;;;;1.40;1.30;;;;;;;8.95;100.00;97578.22;5012923;28;20202;-85
2021/12/29 01:26:45;;;;;;;1.30;1.20;;;;;;;8.95;100.00;97591.41;4986386;28;20195;-84
2021/12/29 01:29:14;;;;;;;1.40;1.30;;;;;;;8.91;100.00;97597.94;5014799;28;20190;-83
2021/12/29 01:31:43;;;;;;;1.50;1.40;;;;;;;9.02;100.00;97597.88;5018954;28;20198;-84
2021/12/29 01:34:13;;;;;;;1.37;1.10;;;;;;;9.06;100.00;97606.38;5013609;28;20650;-85
2021/12/29 01:36:42;;;;;;;1.37;1.20;;;;;;;9.12;100.00;97621.72;5017311;28;20196;-84
2021/12/29 01:39:14;;;;;;;1.77;1.37;;;;;;;9.15;100.00;97627.56;5016257;28;20214;-84
2021/12/29 01:41:46;;;;;;;1.40;1.30;;;;;;;9.11;100.00;97630.59;5013829;28;20306;-84
2021/12/29 01:44:17;;;;;;;1.30;1.10;;;;;;;9.18;100.00;97629.97;5013708;28;20195;-85
2021/12/29 01:46:48;;;;;;;1.30;1.00;;;;;;;9.15;100.00;97638.13;5015884;28;20187;-85
2021/12/29 01:49:17;;;;;;;1.40;1.30;;;;;;;9.21;100.00;97643.91;5017402;28;20286;-84
2021/12/29 01:51:59;;;;;;;2.50;1.30;;;;;;;9.23;100.00;97644.59;5015143;28;20194;-85
2021/12/29 01:54:35;;;;;;;1.30;1.20;;;;;;;9.08;100.00;97644.06;5013415;28;20205;-84
2021/12/29 01:57:10;;;;;;;1.40;1.30;;;;;;;9.12;100.00;97663.97;5017357;28;20281;-85
2021/12/29 01:59:39;;;;;;;1.67;1.20;;;;;;;9.09;100.00;97673.00;5013967;28;20201;-85
2021/12/29 02:02:07;;;;;;;1.10;1.00;;;;;;;8.98;100.00;97665.13;5018393;28;20642;-85
2021/12/29 02:04:36;;;;;;;2.30;1.30;;;;;;;8.99;100.00;97666.78;4977649;28;20236;-85
2021/12/29 02:07:05;;;;;;;1.20;1.00;;;;;;;8.93;100.00;97680.47;5010554;28;20260;-85
2021/12/29 02:09:35;;;;;;;1.40;1.30;;;;;;;9.00;100.00;97686.94;5014079;28;20198;-85
2021/12/29 02:12:09;;;;;;;1.20;1.10;;;;;;;8.90;100.00;97686.03;5011186;28;20206;-85
2021/12/29 02:14:37;;;;;;;1.60;1.40;;;;;;;8.96;100.00;97695.22;5013005;28;20194;-85
2021/12/29 02:17:07;;;;;;;2.23;1.30;;;;;;;8.95;100.00;97689.09;5010723;28;20206;-84
2021/12/29 02:19:42;;;;;;;1.50;1.00;;;;;;;8.90;100.00;97693.94;5010389;28;20230;-85
2021/12/29 02:22:24;;;;;;;1.40;1.23;;;;;;;8.84;100.00;97712.91;5014953;28;20189;-84
2021/12/29 02:25:06;;;;;;;1.27;1.17;;;;;;;8.92;100.00;97707.84;5011693;28;20191;-84
2021/12/29 02:27:37;;;;;;;1.33;1.23;;;;;;;8.92;100.00;97720.22;5015418;28;20186;-84
2021/12/29 02:30:06;;;;;;;1.10;1.00;;;;;;;8.98;100.00;97733.78;5013082;28;20194;-84
2021/12/29 02:32:34;;;;;;;1.10;1.00;;;;;;;8.92;100.00;97747.44;5011665;28;20206;-85
2021/12/29 02:35:03;;;;;;;0.90;0.90;;;;;;;8.99;100.00;97751.28;5006937;28;20205;-84
2021/12/29 02:37:33;;;;;;;0.97;0.93;;;;;;;9.01;100.00;97749.34;5012975;28;20194;-84
2021/12/29 02:40:01;;;;;;;1.20;1.10;;;;;;;8.83;100.00;97758.75;5013216;28;20206;-85
2021/12/29 02:42:38;;;;;;;1.00;1.00;;;;;;;8.89;100.00;97760.91;5003371;28;20256;-85
2021/12/29 02:45:09;;;;;;;1.10;1.00;;;;;;;8.95;100.00;97759.56;5012788;28;20229;-85
2021/12/29 02:47:37;;;;;;;1.20;0.93;;;;;;;8.86;100.00;97769.06;5015549;28;20194;-84
2021/12/29 02:50:06;;;;;;;0.80;0.80;;;;;;;8.91;100.00;97769.53;5009661;28;20203;-85
2021/12/29 02:52:36;;;;;;;0.80;0.80;;;;;;;8.86;100.00;97775.16;5015733;28;20199;-85
2021/12/29 02:55:05;;;;;;;1.33;1.17;;;;;;;8.88;100.00;97777.72;5011045;28;20200;-85
2021/12/29 02:57:34;;;;;;;2.60;1.00;;;;;;;8.95;100.00;97785.97;5007661;28;20245;-85
2021/12/29 03:00:02;;;;;;;2.17;1.20;;;;;;;8.88;100.00;97780.34;5009966;28;20225;-84
2021/12/29 03:02:31;;;;;;;1.83;1.40;;;;;;;8.89;100.00;97792.59;5005716;28;20202;-85
2021/12/29 03:05:00;;;;;;;1.77;1.40;;;;;;;8.84;100.00;97792.94;5012729;28;20195;-84
2021/12/29 03:07:33;;;;;;;1.80;1.47;;;;;;;8.81;100.00;97787.91;5011103;28;20194;-85
2021/12/29 03:10:03;;;;;;;2.37;1.60;;;;;;;8.81;100.00;97787.91;5007335;28;20214;-84
2021/12/29 03:12:31;;;;;;;2.67;1.80;;;;;;;8.83;100.00;97788.63;5006587;28;20206;-85
2021/12/29 03:15:00;;;;;;;6.70;5.07;;;;;;;8.78;100.00;97792.56;5011543;28;20195;-84
2021/12/29 03:17:30;;;;;;;2.27;1.90;;;;;;;8.77;100.00;97809.38;5010370;28;20226;-85
2021/12/29 03:19:58;;;;;;;2.03;1.87;;;;;;;8.90;100.00;97802.19;5015649;28;20249;-85
2021/12/29 03:22:27;;;;;;;2.07;1.87;;;;;;;8.85;100.00;97805.19;5018996;28;20721;-85
2021/12/29 03:24:55;;;;;;;2.50;1.93;;;;;;;8.92;100.00;97818.75;5009919;28;20187;-85
2021/12/29 03:27:25;;;;;;;4.40;1.97;;;;;;;8.96;100.00;97817.53;5012414;28;20195;-85
2021/12/29 03:29:55;;;;;;;2.30;1.90;;;;;;;9.01;100.00;97814.53;5010138;28;20195;-85
2021/12/29 03:32:37;;;;;;;2.30;2.00;;;;;;;8.93;100.00;97823.06;5009303;28;20229;-85
2021/12/29 03:35:06;;;;;;;2.73;2.00;;;;;;;8.92;100.00;97833.75;5009755;28;20190;-84
2021/12/29 03:37:35;;;;;;;2.90;2.20;;;;;;;8.78;100.00;97825.13;4950528;29;20714;-85
2021/12/29 03:40:04;;;;;;;2.93;1.93;;;;;;;8.82;100.00;97831.81;4944915;29;20228;-85
2021/12/29 03:42:35;;;;;;;2.10;1.90;;;;;;;8.90;100.00;97833.88;4947923;29;20203;-84
2021/12/29 03:45:04;;;;;;;2.20;1.80;;;;;;;8.89;100.00;97842.75;4954339;28;20192;-85
2021/12/29 03:47:33;;;;;;;3.43;2.17;;;;;;;8.94;100.00;97851.13;4896628;29;20210;-85
2021/12/29 03:50:01;;;;;;;2.23;1.73;;;;;;;9.04;100.00;97838.06;4897256;29;20208;-85
2021/12/29 03:52:30;;;;;;;2.10;1.90;;;;;;;8.93;100.00;97853.91;4897410;29;20665;-85
2021/12/29 03:54:58;;;;;;;2.03;1.90;;;;;;;8.86;100.00;97850.91;4903977;29;20215;-85
2021/12/29 03:57:27;;;;;;;3.17;2.00;;;;;;;8.91;100.00;97859.31;4948426;29;20200;-85
2021/12/29 03:59:57;;;;;;;2.20;1.80;;;;;;;8.92;100.00;97863.63;4950792;29;20216;-84
2021/12/29 04:02:26;;;;;;;2.60;1.80;;;;;;;8.96;100.00;97865.06;4942926;29;20208;-85
2021/12/29 04:04:54;;;;;;;2.90;2.20;;;;;;;8.74;100.00;97849.22;4951926;29;20196;-86
2021/12/29 04:07:24;;;;;;;2.80;2.50;;;;;;;8.68;100.00;97855.81;4946598;29;20200;-86
2021/12/29 04:09:52;;;;;;;2.60;2.40;;;;;;;8.67;100.00;97854.13;4896996;29;20199;-86
2021/12/29 04:12:27;;;;;;;2.70;2.33;;;;;;;8.72;100.00;97859.91;4924499;29;20192;-85
2021/12/29 04:14:55;;;;;;;3.83;2.60;;;;;;;8.70;100.00;97866.25;4950367;29;20262;-85
2021/12/29 04:17:36;;;;;;;4.40;2.80;;;;;;;8.70;100.00;97882.09;4948161;29;20224;-86
2021/12/29 04:22:53;;;;;;;3.33;3.03;;;;;;;8.58;100.00;97879.41;4954760;29;20208;-85
2021/12/29 04:25:24;;;;;;;6.70;3.33;;;;;;;8.57;100.00;97885.66;4948593;28;20195;-86
2021/12/29 04:27:53;;;;;;;3.50;3.20;;;;;;;8.54;100.00;97893.81;4948799;29;20204;-85
2021/12/29 04:30:23;;;;;;;3.43;3.13;;;;;;;8.59;100.00;97893.47;4947642;29;20207;-85
2021/12/29 04:32:55;;;;;;;3.47;3.17;;;;;;;8.66;100.00;97910.50;4949900;29;20251;-85
2021/12/29 04:35:24;;;;;;;4.03;3.17;;;;;;;8.66;100.00;97914.94;5002635;28;20198;-85
2021/12/29 04:37:53;;;;;;;3.20;2.73;;;;;;;8.58;100.00;97924.28;4998723;28;20190;-84
2021/12/29 04:40:22;;;;;;;4.07;2.80;;;;;;;8.69;100.00;97920.00;5035203;28;20210;-85
2021/12/29 04:42:54;;;;;;;3.07;2.83;;;;;;;8.76;100.00;97923.84;5019274;28;20252;-85
2021/12/29 04:45:27;;;;;;;3.13;2.83;;;;;;;8.66;100.00;97928.16;5013107;28;20197;-86
2021/12/29 04:47:59;;;;;;;3.37;2.93;;;;;;;8.70;100.00;97938.38;5009236;28;20206;-85
2021/12/29 04:50:30;;;;;;;3.10;2.80;;;;;;;8.68;100.00;97945.53;5003617;28;20206;-85
2021/12/29 04:53:01;;;;;;;2.83;2.60;;;;;;;8.79;100.00;97953.50;5008941;28;20221;-85
2021/12/29 04:55:30;;;;;;;4.17;3.17;;;;;;;8.65;100.00;97960.78;5007880;28;20209;-86
2021/12/29 04:58:01;;;;;;;3.47;3.17;;;;;;;8.81;100.00;97959.50;5013673;28;20290;-85
2021/12/29 05:00:33;;;;;;;3.30;3.00;;;;;;;8.75;100.00;97959.97;5012736;28;20218;-85
2021/12/29 05:03:04;;;;;;;3.03;2.80;;;;;;;8.66;100.00;97965.09;5005891;28;20210;-85
2021/12/29 05:05:52;;;;;;;3.67;3.30;;;;;;;8.60;100.00;97963.78;5008687;28;20245;-86
2021/12/29 05:08:24;;;;;;;4.50;3.10;;;;;;;8.72;100.00;97965.47;5012157;28;20672;-85
2021/12/29 05:10:55;;;;;;;4.27;3.53;;;;;;;8.60;100.00;97961.13;5007613;28;20264;-87
2021/12/29 05:13:25;;;;;;;3.87;3.23;;;;;;;8.79;100.00;97981.72;5013998;28;20194;-85
2021/12/29 05:15:55;;;;;;;5.17;3.53;;;;;;;8.82;100.00;97981.47;4978264;28;20190;-85
2021/12/29 05:18:27;;;;;;;4.13;3.40;;;;;;;8.88;100.00;97995.06;5024240;28;20283;-85
2021/12/29 05:20:56;;;;;;;3.87;3.47;;;;;;;8.73;100.00;97990.09;5024460;28;20217;-85
2021/12/29 05:23:26;;;;;;;6.03;3.47;;;;;;;8.68;100.00;98000.97;5033269;28;20231;-84
2021/12/29 05:25:56;;;;;;;4.10;3.70;;;;;;;8.73;100.00;97988.28;5030747;28;20202;-85
2021/12/29 05:28:25;;;;;;;4.63;3.50;;;;;;;8.68;100.00;97992.22;5030458;28;20259;-85
2021/12/29 05:30:55;;;;;;;4.60;3.60;;;;;;;8.82;100.00;98005.22;5022097;28;20234;-85
2021/12/29 05:33:23;;;;;;;4.80;3.60;;;;;;;8.80;100.00;98005.34;5026574;28;20201;-85
2021/12/29 05:35:55;;;;;;;4.17;3.77;;;;;;;8.63;100.00;98015.47;5030053;28;20201;-86
2021/12/29 05:38:24;;;;;;;4.90;3.70;;;;;;;8.63;100.00;98015.47;5031416;28;20202;-85
2021/12/29 05:40:52;;;;;;;5.03;4.27;;;;;;;8.65;100.00;98019.69;5030492;28;20776;-85
2021/12/29 05:43:21;;;;;;;4.20;3.80;;;;;;;8.65;100.00;98030.25;5034128;28;20190;-85
2021/12/29 05:45:51;;;;;;;4.53;3.97;;;;;;;8.52;100.00;98029.47;5028065;28;20190;-85
2021/12/29 05:48:19;;;;;;;4.47;3.97;;;;;;;8.72;100.00;98025.34;5027847;28;20197;-85
2021/12/29 05:50:48;;;;;;;4.77;4.00;;;;;;;8.66;100.00;98029.28;5031475;28;20256;-85
2021/12/29 05:53:18;;;;;;;4.37;3.90;;;;;;;8.66;100.00;98039.84;5025595;28;20197;-84
2021/12/29 05:55:46;;;;;;;4.37;3.97;;;;;;;8.46;100.00;98028.13;5033274;28;20217;-85
2021/12/29 05:58:15;;;;;;;4.83;3.70;;;;;;;8.65;100.00;98039.97;5029565;28;20209;-84
2021/12/29 06:00:44;;;;;;;6.20;4.00;;;;;;;8.61;100.00;98060.47;5027033;28;20222;-85
2021/12/29 06:03:13;;;;;;;4.30;3.53;;;;;;;8.67;100.00;98062.63;5027810;28;20192;-85
2021/12/29 06:05:41;;;;;;;4.47;3.87;;;;;;;8.74;100.00;98063.88;5028516;28;20645;-85
2021/12/29 06:08:09;;;;;;;4.73;4.07;;;;;;;8.65;100.00;98072.47;5023137;28;20198;-84
2021/12/29 06:10:40;;;;;;;3.40;3.10;;;;;;;8.74;100.00;98068.31;5027836;28;20197;-85
2021/12/29 06:13:08;;;;;;;3.80;3.17;;;;;;;8.80;100.00;98070.50;5031081;28;20205;-84
2021/12/29 06:15:36;;;;;;;3.87;3.57;;;;;;;8.63;100.00;98065.63;5035217;28;20206;-85
2021/12/29 06:18:08;;;;;;;4.20;3.50;;;;;;;8.59;100.00;98080.84;5031013;28;20685;-85
2021/12/29 06:20:38;;;;;;;3.90;3.50;;;;;;;8.66;100.00;98081.22;4975008;28;20730;-85
2021/12/29 06:23:07;;;;;;;4.27;3.50;;;;;;;8.66;100.00;98095.28;4972820;28;20203;-86
2021/12/29 06:25:35;;;;;;;5.23;3.50;;;;;;;8.66;100.00;98108.47;4974273;28;20254;-84
2021/12/29 06:28:06;;;;;;;5.43;3.57;;;;;;;8.74;100.00;98100.84;4973553;28;20208;-85
2021/12/29 06:30:36;;;;;;;3.37;2.70;;;;;;;8.58;100.00;98118.72;4970738;28;20655;-85
2021/12/29 06:33:05;;;;;;;4.33;3.10;;;;;;;8.62;100.00;98109.66;4975646;28;20195;-85
2021/12/29 06:35:33;;;;;;;3.07;2.60;;;;;;;8.74;100.00;98107.91;4967552;28;20208;-85
2021/12/29 06:38:04;;;;;;;2.87;2.43;;;;;;;8.66;100.00;98112.91;4981679;28;20201;-85
2021/12/29 06:40:34;;;;;;;5.67;2.90;;;;;;;8.73;100.00;98107.06;5034068;28;20213;-85
2021/12/29 06:43:02;;;;;;;4.50;2.67;;;;;;;8.80;100.00;98112.75;5016942;28;20198;-85
2021/12/29 06:45:32;;;;;;;2.83;2.57;;;;;;;8.76;100.00;98114.75;5028792;28;20213;-85
2021/12/29 06:48:02;;;;;;;4.57;2.60;;;;;;;8.65;100.00;98108.59;5031635;28;20202;-85
2021/12/29 06:50:30;;;;;;;5.10;2.80;;;;;;;8.60;100.00;98120.31;5029419;28;20198;-85
2021/12/29 06:52:59;;;;;;;2.73;2.30;;;;;;;8.65;100.00;98114.69;5026510;28;20201;-85
2021/12/29 06:55:27;;;;;;;2.90;2.43;;;;;;;8.52;100.00;98113.91;5037389;28;20194;-85
2021/12/29 06:57:57;;;;;;;2.73;2.10;;;;;;;8.76;100.00;98121.84;5034490;28;20209;-86
2021/12/29 07:00:25;;;;;;;3.87;2.70;;;;;;;8.60;100.00;98128.25;5034195;28;20235;-85
2021/12/29 07:02:55;;;;;;;3.13;2.20;;;;;;;8.76;100.00;98127.94;5033224;28;20197;-85
2021/12/29 07:05:24;;;;;;;3.77;2.57;;;;;;;8.55;100.00;98133.00;5037279;28;20194;-85
2021/12/29 07:07:54;;;;;;;3.00;2.43;;;;;;;8.56;100.00;98129.41;5031586;28;20204;-85
2021/12/29 07:10:22;;;;;;;3.43;2.10;;;;;;;8.56;100.00;98136.47;4986329;28;20229;-85
2021/12/29 07:12:51;;;;;;;2.30;1.93;;;;;;;8.53;100.00;98145.47;5031468;28;20267;-84
2021/12/29 07:15:19;;;;;;;2.30;1.90;;;;;;;8.49;100.00;98140.50;5023659;28;20251;-85
2021/12/29 07:17:47;;;;;;;2.13;1.80;;;;;;;8.46;100.00;98143.38;5029146;28;20218;-85
2021/12/29 07:20:17;;;;;;;2.20;1.57;;;;;;;8.55;100.00;98155.91;5032158;28;20209;-85
2021/12/29 07:22:45;;;;;;;2.23;1.40;;;;;;;8.46;100.00;98167.97;4980447;28;20206;-86
2021/12/29 07:25:14;;;;;;;3.70;1.70;;;;;;;8.51;100.00;98168.50;5028619;28;20190;-86
2021/12/29 07:27:42;;;;;;;1.80;1.40;;;;;;;8.49;100.00;98172.16;4982006;28;20194;-84
2021/12/29 07:30:11;;;;;;;2.33;1.60;;;;;;;8.46;100.00;98170.59;5022952;28;20661;-85
2021/12/29 07:32:40;;;;;;;5.20;4.70;;;;;;;8.43;100.00;98172.63;5031794;28;20209;-84
2021/12/29 07:35:09;;;;;;;1.60;1.50;;;;;;;8.48;100.00;98189.81;5034666;28;20186;-85
2021/12/29 07:37:39;;;;;;;3.97;1.73;;;;;;;8.40;100.00;98204.53;5025480;28;20193;-85
2021/12/29 07:40:08;;;;;;;2.73;1.60;;;;;;;8.47;100.00;98201.31;5023034;28;20200;-85
2021/12/29 07:42:38;;;;;;;2.00;1.63;;;;;;;8.42;100.00;98206.09;5031332;28;20222;-85
2021/12/29 07:45:09;;;;;;;2.60;1.60;;;;;;;8.45;100.00;98226.97;5033281;28;20197;-85
2021/12/29 07:47:40;;;;;;;2.43;1.60;;;;;;;8.62;100.00;98222.31;5036080;28;20201;-85
2021/12/29 07:50:09;;;;;;;2.87;1.63;;;;;;;8.47;100.00;98227.69;5053125;28;20245;-85
2021/12/29 07:52:59;;;;;;;1.83;1.73;;;;;;;8.33;100.00;98226.00;5035129;28;20233;-85
2021/12/29 07:55:28;;;;;;;2.73;1.83;;;;;;;8.39;100.00;98226.53;5027440;28;20194;-85
2021/12/29 07:57:57;;;;;;;2.10;1.90;;;;;;;8.43;100.00;98231.53;5031644;28;20185;-85
2021/12/29 08:00:25;;;;;;;3.80;2.47;;;;;;;8.50;100.00;98224.88;5026517;28;20744;-84
2021/12/29 08:02:55;;;;;;;3.00;2.40;;;;;;;8.28;100.00;98222.84;5031042;28;20198;-85
2021/12/29 08:05:24;;;;;;;3.63;2.70;;;;;;;8.28;100.00;98238.66;5026787;28;20255;-85
2021/12/29 08:07:52;;;;;;;3.10;2.80;;;;;;;8.37;100.00;98239.84;5031850;28;20201;-85
2021/12/29 08:10:22;;;;;;;4.27;2.57;;;;;;;8.43;100.00;98246.50;5031092;28;20206;-85
2021/12/29 08:12:50;;;;;;;5.30;2.90;;;;;;;8.43;100.00;98260.53;5034593;28;20193;-85
2021/12/29 08:15:18;;;;;;;3.10;2.73;;;;;;;8.40;100.00;98259.94;5029594;28;20205;-85
2021/12/29 08:17:51;;;;;;;4.87;3.23;;;;;;;8.29;100.00;98264.09;5029021;28;20230;-85
2021/12/29 08:20:21;;;;;;;4.87;2.80;;;;;;;8.39;100.00;98266.97;5034054;28;20208;-85
2021/12/29 08:22:49;;;;;;;4.97;3.20;;;;;;;8.33;100.00;98278.78;5028465;28;20232;-85
2021/12/29 08:25:18;;;;;;;3.70;3.10;;;;;;;8.39;100.00;98281.97;5031244;28;20201;-85
2021/12/29 08:27:48;;;;;;;5.30;3.13;;;;;;;8.30;100.00;98283.44;4980658;28;20666;-84
2021/12/29 08:30:17;;;;;;;6.07;3.00;;;;;;;8.44;100.00;98287.78;5029755;28;20189;-85
2021/12/29 08:32:45;;;;;;;4.67;3.30;;;;;;;8.37;100.00;98284.72;5021787;28;20212;-85
2021/12/29 08:35:14;;;;;;;6.03;3.60;;;;;;;8.28;100.00;98285.31;5034017;28;20779;-85
2021/12/29 08:37:44;;;;;;;3.70;3.40;;;;;;;8.40;100.00;98281.03;5026594;28;20205;-84
2021/12/29 08:40:14;;;;;;;4.13;3.60;;;;;;;8.35;100.00;98288.41;5030075;28;20210;-85
2021/12/29 08:42:43;;;;;;;6.00;4.30;;;;;;;8.31;100.00;98282.47;5030081;28;20217;-85
2021/12/29 08:45:15;;;;;;;4.80;4.30;;;;;;;8.22;100.00;98291.03;5026340;28;20193;-85
2021/12/29 08:47:47;;;;;;;6.17;4.43;;;;;;;8.23;100.00;98288.28;5034497;28;20198;-85
2021/12/29 08:50:18;;;;;;;4.77;3.93;;;;;;;8.26;100.00;98287.22;5026204;28;20198;-85
2021/12/29 08:52:47;;;;;;;4.47;3.87;;;;;;;8.24;100.00;98276.78;5031088;28;20205;-85
2021/12/29 08:55:16;;;;;;;4.03;3.17;;;;;;;8.44;100.00;98280.69;5026849;28;20195;-85
2021/12/29 08:57:45;;;;;;;3.80;3.10;;;;;;;8.47;100.00;98287.56;5033920;28;20201;-85
2021/12/29 09:00:17;;;;;;;4.77;3.20;;;;;;;8.58;100.00;98296.41;5026478;28;20196;-85
2021/12/29 09:02:47;;;;;;;4.00;3.40;;;;;;;8.37;100.00;98291.78;5029633;28;20224;-85
2021/12/29 09:05:18;;;;;;;3.47;3.03;;;;;;;8.58;100.00;98298.19;5026049;28;20220;-86
2021/12/29 09:07:48;;;;;;;4.63;3.60;;;;;;;8.46;100.00;98299.06;5021539;28;20198;-84
2021/12/29 09:10:19;;;;;;;5.23;4.17;;;;;;;8.47;100.00;98301.59;5033944;28;20216;-85
2021/12/29 09:12:49;;;;;;;4.33;3.50;;;;;;;8.59;100.00;98306.03;5033125;28;20200;-84
2021/12/29 09:15:20;;;;;;;4.40;3.43;;;;;;;8.50;100.00;98309.31;5033666;28;20208;-85
2021/12/29 09:17:49;;;;;;;14.53;12.57;;;;;;;8.53;100.00;98308.25;5037788;28;20217;-85
2021/12/29 09:20:25;;;;;;;19.37;13.73;;;;;;;8.51;100.00;98305.72;5017165;28;20193;-86
2021/12/29 09:22:56;;;;;;;32.37;23.37;;;;;;;8.55;100.00;98315.09;5034553;28;20217;-85
2021/12/29 09:25:25;;;;;;;8.40;6.13;;;;;;;8.63;100.00;98322.50;5031588;28;20194;-86
2021/12/29 09:27:53;;;;;;;7.60;5.70;;;;;;;8.65;100.00;98325.03;5029349;28;20190;-85
2021/12/29 09:30:28;;;;;;;9.20;8.40;;;;;;;8.55;100.00;98317.75;5030275;28;20198;-85
2021/12/29 09:32:57;;;;;;;3.47;3.17;;;;;;;8.69;100.00;98321.22;5035555;28;20276;-84
2021/12/29 09:35:25;;;;;;;7.77;5.23;;;;;;;8.63;100.00;98326.94;5031364;28;20208;-85
2021/12/29 09:37:54;;;;;;;3.73;3.20;;;;;;;8.81;100.00;98317.72;5027013;28;20205;-85
2021/12/29 09:40:25;;;;;;;6.40;4.70;;;;;;;8.64;100.00;98318.91;5028993;28;20332;-85
2021/12/29 09:42:56;;;;;;;4.03;2.97;;;;;;;8.76;100.00;98304.84;5032336;28;20699;-85
2021/12/29 09:45:27;;;;;;;3.30;3.00;;;;;;;8.80;100.00;98308.13;5032546;28;20194;-85
2021/12/29 09:47:57;;;;;;;3.17;2.87;;;;;;;8.82;100.00;98309.69;5032993;28;20190;-85
2021/12/29 09:50:28;;;;;;;3.23;2.73;;;;;;;8.80;100.00;98301.03;4972432;28;20337;-85
2021/12/29 09:52:57;;;;;;;3.60;2.80;;;;;;;8.93;100.00;98316.00;4969027;28;20660;-86
2021/12/29 09:55:26;;;;;;;3.23;2.90;;;;;;;8.87;100.00;98314.63;4972118;28;20198;-85
2021/12/29 09:57:57;;;;;;;4.57;4.07;;;;;;;8.79;100.00;98311.72;4973707;28;20195;-84
2021/12/29 10:00:34;;;;;;;3.20;2.90;;;;;;;8.71;100.00;98320.16;4971653;28;20777;-85
2021/12/29 10:03:06;;;;;;;3.30;2.60;;;;;;;8.86;100.00;98313.78;4973621;28;20310;-85
2021/12/29 10:05:37;;;;;;;2.63;2.30;;;;;;;8.80;100.00;98331.88;4970886;28;20359;-85
2021/12/29 10:08:08;;;;;;;2.93;2.17;;;;;;;8.94;100.00;98325.63;4991791;28;20218;-85
2021/12/29 10:10:41;;;;;;;3.17;2.40;;;;;;;8.93;100.00;98322.13;5037880;28;20198;-85
2021/12/29 10:13:10;;;;;;;2.60;2.40;;;;;;;8.73;100.00;98312.13;5036575;28;20260;-85
2021/12/29 10:15:43;;;;;;;3.80;2.43;;;;;;;8.91;100.00;98307.34;5033948;28;20197;-84
2021/12/29 10:18:13;;;;;;;3.30;2.33;;;;;;;8.91;100.00;98310.00;5035135;28;20221;-85
2021/12/29 10:20:50;;;;;;;4.27;2.57;;;;;;;8.83;100.00;98314.03;5034373;28;20212;-85
2021/12/29 10:23:23;;;;;;;2.47;2.27;;;;;;;8.92;100.00;98319.59;5020451;28;20225;-85
2021/12/29 10:25:53;;;;;;;2.80;2.27;;;;;;;9.07;100.00;98321.16;5042752;28;20193;-85
2021/12/29 10:28:24;;;;;;;3.33;2.60;;;;;;;8.89;100.00;98313.59;5040918;28;20220;-85
2021/12/29 10:31:03;;;;;;;2.70;2.50;;;;;;;8.88;100.00;98308.44;5030228;28;20209;-85
2021/12/29 10:33:37;;;;;;;3.77;2.97;;;;;;;8.92;100.00;98312.53;5034177;28;20240;-85
2021/12/29 10:36:22;;;;;;;5.10;2.77;;;;;;;9.15;100.00;98314.38;5028302;28;20201;-84
2021/12/29 10:39:04;;;;;;;3.57;3.20;;;;;;;8.98;100.00;98317.38;5035571;28;20212;-84
2021/12/29 10:41:43;;;;;;;3.60;3.13;;;;;;;9.00;100.00;98296.97;5026410;28;20206;-85
2021/12/29 10:44:12;;;;;;;5.20;2.80;;;;;;;9.09;100.00;98312.19;5024375;28;20247;-85
2021/12/29 10:46:42;;;;;;;3.10;2.73;;;;;;;9.30;100.00;98312.44;5030906;28;20190;-84
2021/12/29 10:49:12;;;;;;;3.23;2.10;;;;;;;9.49;100.00;98306.66;5031296;28;20212;-85
2021/12/29 10:51:43;;;;;;;3.47;2.53;;;;;;;9.41;100.00;98303.72;5031698;28;20185;-85
2021/12/29 10:54:15;;;;;;;3.40;3.10;;;;;;;9.18;100.00;98303.59;5030195;28;20287;-84
2021/12/29 10:56:47;;;;;;;7.03;3.17;;;;;;;9.08;100.00;98294.66;5032489;28;20232;-85
2021/12/29 10:59:24;;;;;;;4.80;2.87;;;;;;;9.15;100.00;98297.66;5055995;28;20253;-83
2021/12/29 11:01:54;;;;;;;5.07;2.77;;;;;;;9.29;100.00;98286.13;5034370;28;20256;-85
2021/12/29 11:04:24;;;;;;;4.03;2.73;;;;;;;9.39;100.00;98289.78;5028600;28;20629;-84
2021/12/29 11:06:56;;;;;;;3.37;2.73;;;;;;;9.36;100.00;98296.13;5027345;28;20201;-84
2021/12/29 11:09:28;;;;;;;4.93;2.70;;;;;;;9.48;100.00;98291.75;5032594;28;20198;-85
2021/12/29 11:11:57;;;;;;;2.77;2.33;;;;;;;9.66;100.00;98294.84;5025039;28;20194;-84
2021/12/29 11:14:28;;;;;;;4.57;2.60;;;;;;;9.61;100.00;98294.31;5030062;28;20202;-84
2021/12/29 11:17:25;;;;;;;2.83;2.53;;;;;;;9.61;100.00;98295.16;5028850;28;20296;-84
2021/12/29 11:19:57;;;;;;;4.63;2.70;;;;;;;9.69;100.00;98297.25;5031277;28;20197;-84
2021/12/29 11:22:28;;;;;;;2.93;2.63;;;;;;;9.60;100.00;98300.56;5034607;28;20217;-84
2021/12/29 11:24:59;;;;;;;3.70;2.70;;;;;;;9.60;100.00;98296.13;5034102;28;20212;-85
2021/12/29 11:27:35;;;;;;;5.77;2.30;;;;;;;9.54;100.00;98296.56;5034395;28;20197;-84
2021/12/29 11:30:09;;;;;;;3.60;2.30;;;;;;;9.71;100.00;98304.09;5009630;28;20194;-84
2021/12/29 11:32:42;;;;;;;4.90;2.67;;;;;;;9.54;100.00;98299.22;5019904;28;20194;-84
2021/12/29 11:35:15;;;;;;;2.37;2.17;;;;;;;9.74;100.00;98303.00;5007368;28;20226;-84
2021/12/29 11:37:47;;;;;;;4.27;2.00;;;;;;;9.79;100.00;98302.69;5014081;28;20197;-84
2021/12/29 11:40:18;;;;;;;4.73;2.30;;;;;;;9.76;100.00;98298.47;5017827;28;20203;-83
2021/12/29 11:42:48;;;;;;;2.53;2.10;;;;;;;9.77;100.00;98297.53;5010578;28;20209;-84
2021/12/29 11:45:17;;;;;;;3.37;2.27;;;;;;;9.56;100.00;98297.31;5015174;28;20240;-83
2021/12/29 11:47:48;;;;;;;3.97;2.33;;;;;;;9.80;100.00;98301.72;5010482;28;20261;-84
2021/12/29 11:50:24;;;;;;;3.97;2.57;;;;;;;9.85;100.00;98302.25;5018797;28;20191;-84
2021/12/29 11:53:06;;;;;;;5.87;2.50;;;;;;;9.69;100.00;98297.25;5022764;28;20382;-84